sensor_id;sensor_type;location;lat;lon;timestamp;temperature;humidity
65291;SHT30;51893;59.754;10.110;2023-09-07T00:02:14;12.70;79.30
65291;SHT30;51893;59.754;10.110;2023-09-07T00:04:42;12.65;79.48
65291;SHT30;51893;59.754;10.110;2023-09-07T00:07:11;12.70;79.21
65291;SHT30;51893;59.754;10.110;2023-09-07T00:09:40;12.73;78.91
65291;SHT30;51893;59.754;10.110;2023-09-07T00:12:08;12.76;78.69
65291;SHT30;51893;59.754;10.110;2023-09-07T00:14:36;12.78;78.48
65291;SHT30;51893;59.754;10.110;2023-09-07T00:17:04;12.76;78.47
65291;SHT30;51893;59.754;10.110;2023-09-07T00:19:33;12.73;78.30
65291;SHT30;51893;59.754;10.110;2023-09-07T00:22:04;12.67;78.46
65291;SHT30;51893;59.754;10.110;2023-09-07T00:24:32;12.56;78.69
65291;SHT30;51893;59.754;10.110;2023-09-07T00:27:00;12.51;78.49
65291;SHT30;51893;59.754;10.110;2023-09-07T00:29:28;12.48;79.29
65291;SHT30;51893;59.754;10.110;2023-09-07T00:31:56;12.44;79.46
65291;SHT30;51893;59.754;10.110;2023-09-07T00:34:25;12.38;79.37
65291;SHT30;51893;59.754;10.110;2023-09-07T00:36:52;12.41;79.20
65291;SHT30;51893;59.754;10.110;2023-09-07T00:39:20;12.41;79.28
65291;SHT30;51893;59.754;10.110;2023-09-07T00:41:48;12.42;79.44
65291;SHT30;51893;59.754;10.110;2023-09-07T00:44:16;12.35;79.75
65291;SHT30;51893;59.754;10.110;2023-09-07T00:46:44;12.25;80.15
65291;SHT30;51893;59.754;10.110;2023-09-07T00:49:13;12.21;80.35
65291;SHT30;51893;59.754;10.110;2023-09-07T00:51:42;12.20;80.23
65291;SHT30;51893;59.754;10.110;2023-09-07T00:54:09;12.18;79.63
65291;SHT30;51893;59.754;10.110;2023-09-07T00:56:38;12.12;80.21
65291;SHT30;51893;59.754;10.110;2023-09-07T00:59:07;12.10;80.51
65291;SHT30;51893;59.754;10.110;2023-09-07T01:01:35;12.10;80.00
65291;SHT30;51893;59.754;10.110;2023-09-07T01:04:03;12.07;79.65
65291;SHT30;51893;59.754;10.110;2023-09-07T01:06:34;12.08;79.75
65291;SHT30;51893;59.754;10.110;2023-09-07T01:09:12;12.11;79.56
65291;SHT30;51893;59.754;10.110;2023-09-07T01:11:47;12.07;79.23
65291;SHT30;51893;59.754;10.110;2023-09-07T01:14:15;12.02;79.24
65291;SHT30;51893;59.754;10.110;2023-09-07T01:16:44;12.05;79.05
65291;SHT30;51893;59.754;10.110;2023-09-07T01:19:13;12.14;78.83
65291;SHT30;51893;59.754;10.110;2023-09-07T01:21:42;12.15;78.69
65291;SHT30;51893;59.754;10.110;2023-09-07T01:24:11;12.16;78.61
65291;SHT30;51893;59.754;10.110;2023-09-07T01:26:41;12.06;78.78
65291;SHT30;51893;59.754;10.110;2023-09-07T01:29:10;11.96;79.04
65291;SHT30;51893;59.754;10.110;2023-09-07T01:31:38;11.88;79.60
65291;SHT30;51893;59.754;10.110;2023-09-07T01:34:06;11.84;79.39
65291;SHT30;51893;59.754;10.110;2023-09-07T01:36:35;11.86;79.56
65291;SHT30;51893;59.754;10.110;2023-09-07T01:39:03;11.95;79.11
65291;SHT30;51893;59.754;10.110;2023-09-07T01:41:35;11.92;79.26
65291;SHT30;51893;59.754;10.110;2023-09-07T01:44:03;11.91;79.38
65291;SHT30;51893;59.754;10.110;2023-09-07T01:46:32;11.89;79.23
65291;SHT30;51893;59.754;10.110;2023-09-07T01:49:00;11.86;79.06
65291;SHT30;51893;59.754;10.110;2023-09-07T01:51:29;11.81;79.29
65291;SHT30;51893;59.754;10.110;2023-09-07T01:53:57;11.79;79.50
65291;SHT30;51893;59.754;10.110;2023-09-07T01:56:25;11.75;79.49
65291;SHT30;51893;59.754;10.110;2023-09-07T01:58:53;11.76;79.37
65291;SHT30;51893;59.754;10.110;2023-09-07T02:01:25;11.85;79.22
65291;SHT30;51893;59.754;10.110;2023-09-07T02:03:55;11.88;79.78
65291;SHT30;51893;59.754;10.110;2023-09-07T02:06:23;11.99;80.07
65291;SHT30;51893;59.754;10.110;2023-09-07T02:08:51;12.03;79.65
65291;SHT30;51893;59.754;10.110;2023-09-07T02:11:19;12.00;79.69
65291;SHT30;51893;59.754;10.110;2023-09-07T02:13:47;11.92;79.66
65291;SHT30;51893;59.754;10.110;2023-09-07T02:16:16;11.80;79.92
65291;SHT30;51893;59.754;10.110;2023-09-07T02:18:44;11.73;80.28
65291;SHT30;51893;59.754;10.110;2023-09-07T02:21:16;11.78;80.38
65291;SHT30;51893;59.754;10.110;2023-09-07T02:23:44;11.76;80.19
65291;SHT30;51893;59.754;10.110;2023-09-07T02:26:13;11.82;79.89
65291;SHT30;51893;59.754;10.110;2023-09-07T02:28:41;11.82;79.60
65291;SHT30;51893;59.754;10.110;2023-09-07T02:31:10;11.73;79.70
65291;SHT30;51893;59.754;10.110;2023-09-07T02:33:38;11.67;80.22
65291;SHT30;51893;59.754;10.110;2023-09-07T02:36:06;11.72;80.37
65291;SHT30;51893;59.754;10.110;2023-09-07T02:38:34;11.72;80.03
65291;SHT30;51893;59.754;10.110;2023-09-07T02:41:02;11.70;80.13
65291;SHT30;51893;59.754;10.110;2023-09-07T02:43:30;11.69;80.31
65291;SHT30;51893;59.754;10.110;2023-09-07T02:45:58;11.71;80.36
65291;SHT30;51893;59.754;10.110;2023-09-07T02:48:26;11.73;80.28
65291;SHT30;51893;59.754;10.110;2023-09-07T02:50:54;11.70;80.17
65291;SHT30;51893;59.754;10.110;2023-09-07T02:53:26;11.68;80.26
65291;SHT30;51893;59.754;10.110;2023-09-07T02:55:54;11.69;80.16
65291;SHT30;51893;59.754;10.110;2023-09-07T02:58:23;11.69;80.32
65291;SHT30;51893;59.754;10.110;2023-09-07T03:00:52;11.73;80.19
65291;SHT30;51893;59.754;10.110;2023-09-07T03:03:22;11.72;80.18
65291;SHT30;51893;59.754;10.110;2023-09-07T03:05:51;11.72;80.29
65291;SHT30;51893;59.754;10.110;2023-09-07T03:08:19;11.65;80.15
65291;SHT30;51893;59.754;10.110;2023-09-07T03:10:47;11.63;80.41
65291;SHT30;51893;59.754;10.110;2023-09-07T03:13:15;11.57;80.82
65291;SHT30;51893;59.754;10.110;2023-09-07T03:15:43;11.53;81.32
65291;SHT30;51893;59.754;10.110;2023-09-07T03:18:11;11.47;81.58
65291;SHT30;51893;59.754;10.110;2023-09-07T03:20:40;11.44;81.94
65291;SHT30;51893;59.754;10.110;2023-09-07T03:23:08;11.40;82.49
65291;SHT30;51893;59.754;10.110;2023-09-07T03:25:36;11.38;82.85
65291;SHT30;51893;59.754;10.110;2023-09-07T03:28:04;11.40;82.98
65291;SHT30;51893;59.754;10.110;2023-09-07T03:30:32;11.44;82.82
65291;SHT30;51893;59.754;10.110;2023-09-07T03:33:01;11.48;82.79
65291;SHT30;51893;59.754;10.110;2023-09-07T03:35:31;11.50;82.65
65291;SHT30;51893;59.754;10.110;2023-09-07T03:38:00;11.49;82.91
65291;SHT30;51893;59.754;10.110;2023-09-07T03:40:28;11.46;83.12
65291;SHT30;51893;59.754;10.110;2023-09-07T03:42:56;11.40;83.47
65291;SHT30;51893;59.754;10.110;2023-09-07T03:45:24;11.35;83.76
65291;SHT30;51893;59.754;10.110;2023-09-07T03:47:52;11.31;84.02
65291;SHT30;51893;59.754;10.110;2023-09-07T03:50:20;11.29;84.14
65291;SHT30;51893;59.754;10.110;2023-09-07T03:52:48;11.29;84.36
65291;SHT30;51893;59.754;10.110;2023-09-07T03:55:16;11.34;84.34
65291;SHT30;51893;59.754;10.110;2023-09-07T03:57:46;11.38;84.34
65291;SHT30;51893;59.754;10.110;2023-09-07T04:00:14;11.44;84.42
65291;SHT30;51893;59.754;10.110;2023-09-07T04:02:43;11.49;84.40
65291;SHT30;51893;59.754;10.110;2023-09-07T04:05:11;11.54;84.35
65291;SHT30;51893;59.754;10.110;2023-09-07T04:07:39;11.59;84.25
65291;SHT30;51893;59.754;10.110;2023-09-07T04:10:08;11.60;84.34
65291;SHT30;51893;59.754;10.110;2023-09-07T04:12:37;11.64;84.41
65291;SHT30;51893;59.754;10.110;2023-09-07T04:15:05;11.66;84.47
65291;SHT30;51893;59.754;10.110;2023-09-07T04:17:34;11.64;84.66
65291;SHT30;51893;59.754;10.110;2023-09-07T04:20:08;11.69;84.76
65291;SHT30;51893;59.754;10.110;2023-09-07T04:22:39;11.73;84.80
65291;SHT30;51893;59.754;10.110;2023-09-07T04:25:10;11.72;84.89
65291;SHT30;51893;59.754;10.110;2023-09-07T04:27:38;11.72;85.03
65291;SHT30;51893;59.754;10.110;2023-09-07T04:30:06;11.74;85.14
65291;SHT30;51893;59.754;10.110;2023-09-07T04:32:35;11.78;85.01
65291;SHT30;51893;59.754;10.110;2023-09-07T04:35:03;11.79;85.01
65291;SHT30;51893;59.754;10.110;2023-09-07T04:37:32;11.78;85.32
65291;SHT30;51893;59.754;10.110;2023-09-07T04:40:00;11.81;85.38
65291;SHT30;51893;59.754;10.110;2023-09-07T04:42:28;11.81;85.49
65291;SHT30;51893;59.754;10.110;2023-09-07T04:44:56;11.85;85.51
65291;SHT30;51893;59.754;10.110;2023-09-07T04:47:24;11.87;85.46
65291;SHT30;51893;59.754;10.110;2023-09-07T04:49:52;11.89;85.46
65291;SHT30;51893;59.754;10.110;2023-09-07T04:52:20;11.94;85.43
65291;SHT30;51893;59.754;10.110;2023-09-07T04:54:49;11.94;85.58
65291;SHT30;51893;59.754;10.110;2023-09-07T04:57:17;11.99;85.60
65291;SHT30;51893;59.754;10.110;2023-09-07T04:59:48;12.05;85.53
65291;SHT30;51893;59.754;10.110;2023-09-07T05:02:16;12.06;85.53
65291;SHT30;51893;59.754;10.110;2023-09-07T05:04:45;12.10;85.60
65291;SHT30;51893;59.754;10.110;2023-09-07T05:07:13;12.11;85.62
65291;SHT30;51893;59.754;10.110;2023-09-07T05:09:41;12.15;85.65
65291;SHT30;51893;59.754;10.110;2023-09-07T05:12:09;12.16;85.75
65291;SHT30;51893;59.754;10.110;2023-09-07T05:14:37;12.16;85.89
65291;SHT30;51893;59.754;10.110;2023-09-07T05:17:05;12.19;85.90
65291;SHT30;51893;59.754;10.110;2023-09-07T05:19:33;12.23;85.88
65291;SHT30;51893;59.754;10.110;2023-09-07T05:22:02;12.28;85.84
65291;SHT30;51893;59.754;10.110;2023-09-07T05:24:30;12.32;85.80
65291;SHT30;51893;59.754;10.110;2023-09-07T05:26:58;12.37;85.79
65291;SHT30;51893;59.754;10.110;2023-09-07T05:29:26;12.33;85.90
65291;SHT30;51893;59.754;10.110;2023-09-07T05:31:54;12.38;85.96
65291;SHT30;51893;59.754;10.110;2023-09-07T05:34:22;12.43;85.99
65291;SHT30;51893;59.754;10.110;2023-09-07T05:36:50;12.54;85.80
65291;SHT30;51893;59.754;10.110;2023-09-07T05:39:18;12.57;85.63
65291;SHT30;51893;59.754;10.110;2023-09-07T05:41:46;12.56;85.62
65291;SHT30;51893;59.754;10.110;2023-09-07T05:44:17;12.54;85.68
65291;SHT30;51893;59.754;10.110;2023-09-07T05:46:45;12.56;85.72
65291;SHT30;51893;59.754;10.110;2023-09-07T05:49:15;12.61;85.70
65291;SHT30;51893;59.754;10.110;2023-09-07T05:51:43;12.62;85.74
65291;SHT30;51893;59.754;10.110;2023-09-07T05:54:12;12.60;85.84
65291;SHT30;51893;59.754;10.110;2023-09-07T05:56:40;12.62;85.97
65291;SHT30;51893;59.754;10.110;2023-09-07T05:59:08;12.61;86.05
65291;SHT30;51893;59.754;10.110;2023-09-07T06:01:36;12.57;86.15
65291;SHT30;51893;59.754;10.110;2023-09-07T06:04:05;12.54;86.37
65291;SHT30;51893;59.754;10.110;2023-09-07T06:06:35;12.56;86.57
65291;SHT30;51893;59.754;10.110;2023-09-07T06:09:03;12.63;86.50
65291;SHT30;51893;59.754;10.110;2023-09-07T06:11:31;12.67;86.43
65291;SHT30;51893;59.754;10.110;2023-09-07T06:14:00;12.74;86.47
65291;SHT30;51893;59.754;10.110;2023-09-07T06:16:28;12.84;86.38
65291;SHT30;51893;59.754;10.110;2023-09-07T06:18:56;12.83;86.35
65291;SHT30;51893;59.754;10.110;2023-09-07T06:21:24;12.86;86.29
65291;SHT30;51893;59.754;10.110;2023-09-07T06:23:53;12.89;86.19
65291;SHT30;51893;59.754;10.110;2023-09-07T06:26:21;12.93;86.20
65291;SHT30;51893;59.754;10.110;2023-09-07T06:28:49;12.91;86.32
65291;SHT30;51893;59.754;10.110;2023-09-07T06:31:17;12.88;86.48
65291;SHT30;51893;59.754;10.110;2023-09-07T06:33:47;12.91;86.44
65291;SHT30;51893;59.754;10.110;2023-09-07T06:36:14;12.95;86.42
65291;SHT30;51893;59.754;10.110;2023-09-07T06:38:42;13.00;86.36
65291;SHT30;51893;59.754;10.110;2023-09-07T06:41:10;13.09;86.33
65291;SHT30;51893;59.754;10.110;2023-09-07T06:43:40;13.19;86.11
65291;SHT30;51893;59.754;10.110;2023-09-07T06:46:08;13.25;86.00
65291;SHT30;51893;59.754;10.110;2023-09-07T06:48:37;13.36;85.94
65291;SHT30;51893;59.754;10.110;2023-09-07T06:51:05;13.45;85.90
65291;SHT30;51893;59.754;10.110;2023-09-07T06:53:36;13.51;85.85
65291;SHT30;51893;59.754;10.110;2023-09-07T06:56:24;13.56;85.84
65291;SHT30;51893;59.754;10.110;2023-09-07T06:58:54;13.60;85.82
65291;SHT30;51893;59.754;10.110;2023-09-07T07:01:22;13.61;85.61
65291;SHT30;51893;59.754;10.110;2023-09-07T07:03:50;13.68;85.43
65291;SHT30;51893;59.754;10.110;2023-09-07T07:06:18;13.75;85.40
65291;SHT30;51893;59.754;10.110;2023-09-07T07:08:46;13.87;85.33
65291;SHT30;51893;59.754;10.110;2023-09-07T07:11:14;13.98;85.23
65291;SHT30;51893;59.754;10.110;2023-09-07T07:13:43;14.08;84.97
65291;SHT30;51893;59.754;10.110;2023-09-07T07:16:11;14.19;84.75
65291;SHT30;51893;59.754;10.110;2023-09-07T07:18:39;14.26;84.76
65291;SHT30;51893;59.754;10.110;2023-09-07T07:21:11;14.29;84.67
65291;SHT30;51893;59.754;10.110;2023-09-07T07:23:39;14.27;84.49
65291;SHT30;51893;59.754;10.110;2023-09-07T07:26:07;14.35;84.48
65291;SHT30;51893;59.754;10.110;2023-09-07T07:28:36;14.43;84.35
65291;SHT30;51893;59.754;10.110;2023-09-07T07:31:08;14.48;84.45
65291;SHT30;51893;59.754;10.110;2023-09-07T07:33:37;14.56;84.31
65291;SHT30;51893;59.754;10.110;2023-09-07T07:36:06;14.63;84.05
65291;SHT30;51893;59.754;10.110;2023-09-07T07:38:35;14.70;83.85
65291;SHT30;51893;59.754;10.110;2023-09-07T07:41:03;14.78;84.01
65291;SHT30;51893;59.754;10.110;2023-09-07T07:43:32;14.86;84.09
65291;SHT30;51893;59.754;10.110;2023-09-07T07:46:02;14.91;83.80
65291;SHT30;51893;59.754;10.110;2023-09-07T07:48:31;14.98;83.93
65291;SHT30;51893;59.754;10.110;2023-09-07T07:51:04;15.05;83.90
65291;SHT30;51893;59.754;10.110;2023-09-07T07:53:37;15.05;83.79
65291;SHT30;51893;59.754;10.110;2023-09-07T07:56:05;15.02;83.71
65291;SHT30;51893;59.754;10.110;2023-09-07T07:58:33;15.02;83.71
65291;SHT30;51893;59.754;10.110;2023-09-07T08:01:02;15.00;83.70
65291;SHT30;51893;59.754;10.110;2023-09-07T08:03:30;15.00;83.64
65291;SHT30;51893;59.754;10.110;2023-09-07T08:06:01;15.06;83.50
65291;SHT30;51893;59.754;10.110;2023-09-07T08:08:29;15.14;83.28
65291;SHT30;51893;59.754;10.110;2023-09-07T08:10:57;15.23;83.05
65291;SHT30;51893;59.754;10.110;2023-09-07T08:13:27;15.32;82.90
65291;SHT30;51893;59.754;10.110;2023-09-07T08:15:56;15.43;82.76
65291;SHT30;51893;59.754;10.110;2023-09-07T08:18:24;15.55;82.66
65291;SHT30;51893;59.754;10.110;2023-09-07T08:20:53;15.62;82.48
65291;SHT30;51893;59.754;10.110;2023-09-07T08:23:22;15.70;82.33
65291;SHT30;51893;59.754;10.110;2023-09-07T08:25:51;15.77;81.94
65291;SHT30;51893;59.754;10.110;2023-09-07T08:28:20;15.84;81.58
65291;SHT30;51893;59.754;10.110;2023-09-07T08:30:52;15.91;81.21
65291;SHT30;51893;59.754;10.110;2023-09-07T08:33:21;16.03;81.03
65291;SHT30;51893;59.754;10.110;2023-09-07T08:35:57;16.13;80.73
65291;SHT30;51893;59.754;10.110;2023-09-07T08:38:28;16.21;80.37
65291;SHT30;51893;59.754;10.110;2023-09-07T08:41:00;16.29;80.14
65291;SHT30;51893;59.754;10.110;2023-09-07T08:43:33;16.40;79.92
65291;SHT30;51893;59.754;10.110;2023-09-07T08:46:14;16.52;79.70
65291;SHT30;51893;59.754;10.110;2023-09-07T08:48:48;16.69;79.92
65291;SHT30;51893;59.754;10.110;2023-09-07T08:51:18;16.80;79.55
65291;SHT30;51893;59.754;10.110;2023-09-07T08:53:47;16.88;79.46
65291;SHT30;51893;59.754;10.110;2023-09-07T08:56:16;16.97;78.92
65291;SHT30;51893;59.754;10.110;2023-09-07T08:58:47;17.09;78.59
65291;SHT30;51893;59.754;10.110;2023-09-07T09:01:17;17.16;78.49
65291;SHT30;51893;59.754;10.110;2023-09-07T09:03:47;17.20;78.12
65291;SHT30;51893;59.754;10.110;2023-09-07T09:06:18;17.26;78.09
65291;SHT30;51893;59.754;10.110;2023-09-07T09:08:56;17.32;77.77
65291;SHT30;51893;59.754;10.110;2023-09-07T09:11:25;17.40;77.72
65291;SHT30;51893;59.754;10.110;2023-09-07T09:13:55;17.57;77.60
65291;SHT30;51893;59.754;10.110;2023-09-07T09:16:23;17.70;76.87
65291;SHT30;51893;59.754;10.110;2023-09-07T09:18:52;17.86;76.71
65291;SHT30;51893;59.754;10.110;2023-09-07T09:21:25;17.97;76.34
65291;SHT30;51893;59.754;10.110;2023-09-07T09:23:55;18.07;75.74
65291;SHT30;51893;59.754;10.110;2023-09-07T09:26:25;18.25;75.97
65291;SHT30;51893;59.754;10.110;2023-09-07T09:28:59;18.42;75.56
65291;SHT30;51893;59.754;10.110;2023-09-07T09:31:28;18.55;74.77
65291;SHT30;51893;59.754;10.110;2023-09-07T09:33:58;18.66;74.67
65291;SHT30;51893;59.754;10.110;2023-09-07T09:36:32;18.77;74.59
65291;SHT30;51893;59.754;10.110;2023-09-07T09:39:02;18.92;73.93
65291;SHT30;51893;59.754;10.110;2023-09-07T09:41:31;18.99;73.28
65291;SHT30;51893;59.754;10.110;2023-09-07T09:44:02;19.02;73.14
65291;SHT30;51893;59.754;10.110;2023-09-07T09:46:32;19.04;73.00
65291;SHT30;51893;59.754;10.110;2023-09-07T09:49:00;19.11;73.18
65291;SHT30;51893;59.754;10.110;2023-09-07T09:51:30;19.18;72.84
65291;SHT30;51893;59.754;10.110;2023-09-07T09:54:00;19.24;72.81
65291;SHT30;51893;59.754;10.110;2023-09-07T09:56:29;19.39;72.80
65291;SHT30;51893;59.754;10.110;2023-09-07T09:58:58;19.53;72.29
65291;SHT30;51893;59.754;10.110;2023-09-07T10:01:26;19.67;71.91
65291;SHT30;51893;59.754;10.110;2023-09-07T10:03:56;19.72;71.25
65291;SHT30;51893;59.754;10.110;2023-09-07T10:06:26;19.69;71.34
65291;SHT30;51893;59.754;10.110;2023-09-07T10:09:06;19.65;71.59
65291;SHT30;51893;59.754;10.110;2023-09-07T10:11:36;19.70;71.80
65291;SHT30;51893;59.754;10.110;2023-09-07T10:14:07;19.85;71.48
65291;SHT30;51893;59.754;10.110;2023-09-07T10:16:42;19.93;71.25
65291;SHT30;51893;59.754;10.110;2023-09-07T10:21:54;20.14;71.00
65291;SHT30;51893;59.754;10.110;2023-09-07T10:24:24;20.20;70.56
65291;SHT30;51893;59.754;10.110;2023-09-07T10:27:11;20.27;70.56
65291;SHT30;51893;59.754;10.110;2023-09-07T10:29:44;20.38;70.38
65291;SHT30;51893;59.754;10.110;2023-09-07T10:32:14;20.49;70.16
65291;SHT30;51893;59.754;10.110;2023-09-07T10:34:47;20.59;69.95
65291;SHT30;51893;59.754;10.110;2023-09-07T10:37:17;20.62;69.72
65291;SHT30;51893;59.754;10.110;2023-09-07T10:39:47;20.71;69.69
65291;SHT30;51893;59.754;10.110;2023-09-07T10:42:21;20.82;69.55
65291;SHT30;51893;59.754;10.110;2023-09-07T10:44:54;20.86;69.56
65291;SHT30;51893;59.754;10.110;2023-09-07T10:47:22;20.87;69.34
65291;SHT30;51893;59.754;10.110;2023-09-07T10:49:50;20.92;69.47
65291;SHT30;51893;59.754;10.110;2023-09-07T10:52:18;21.00;69.48
65291;SHT30;51893;59.754;10.110;2023-09-07T10:54:55;21.10;69.33
65291;SHT30;51893;59.754;10.110;2023-09-07T10:57:25;21.21;69.15
65291;SHT30;51893;59.754;10.110;2023-09-07T10:59:54;21.33;69.01
65291;SHT30;51893;59.754;10.110;2023-09-07T11:02:23;21.49;68.46
65291;SHT30;51893;59.754;10.110;2023-09-07T11:04:51;21.68;68.66
65291;SHT30;51893;59.754;10.110;2023-09-07T11:07:19;21.83;68.17
65291;SHT30;51893;59.754;10.110;2023-09-07T11:09:47;21.94;68.04
65291;SHT30;51893;59.754;10.110;2023-09-07T11:12:20;22.08;67.72
65291;SHT30;51893;59.754;10.110;2023-09-07T11:14:48;22.24;67.73
65291;SHT30;51893;59.754;10.110;2023-09-07T11:17:25;22.31;67.30
65291;SHT30;51893;59.754;10.110;2023-09-07T11:19:57;22.38;66.83
65291;SHT30;51893;59.754;10.110;2023-09-07T11:22:25;22.47;67.21
65291;SHT30;51893;59.754;10.110;2023-09-07T11:24:53;22.66;66.99
65291;SHT30;51893;59.754;10.110;2023-09-07T11:27:21;22.76;66.76
65291;SHT30;51893;59.754;10.110;2023-09-07T11:29:50;22.92;66.82
65291;SHT30;51893;59.754;10.110;2023-09-07T11:32:20;23.11;66.41
65291;SHT30;51893;59.754;10.110;2023-09-07T11:34:50;23.29;66.10
65291;SHT30;51893;59.754;10.110;2023-09-07T11:37:25;23.29;65.96
65291;SHT30;51893;59.754;10.110;2023-09-07T11:39:54;23.33;65.64
65291;SHT30;51893;59.754;10.110;2023-09-07T11:42:22;23.36;65.33
65291;SHT30;51893;59.754;10.110;2023-09-07T11:44:50;23.39;65.21
65291;SHT30;51893;59.754;10.110;2023-09-07T11:47:18;23.40;65.02
65291;SHT30;51893;59.754;10.110;2023-09-07T11:49:46;23.44;64.57
65291;SHT30;51893;59.754;10.110;2023-09-07T11:52:16;23.55;64.41
65291;SHT30;51893;59.754;10.110;2023-09-07T11:54:44;23.59;64.39
65291;SHT30;51893;59.754;10.110;2023-09-07T11:57:12;23.69;64.18
65291;SHT30;51893;59.754;10.110;2023-09-07T11:59:43;23.83;64.17
65291;SHT30;51893;59.754;10.110;2023-09-07T12:02:26;23.98;63.90
65291;SHT30;51893;59.754;10.110;2023-09-07T12:04:55;24.08;63.26
65291;SHT30;51893;59.754;10.110;2023-09-07T12:07:23;24.13;63.30
65291;SHT30;51893;59.754;10.110;2023-09-07T12:09:51;24.23;63.01
65291;SHT30;51893;59.754;10.110;2023-09-07T12:12:19;24.32;62.88
65291;SHT30;51893;59.754;10.110;2023-09-07T12:14:47;24.42;62.49
65291;SHT30;51893;59.754;10.110;2023-09-07T12:17:15;24.49;62.41
65291;SHT30;51893;59.754;10.110;2023-09-07T12:19:44;24.49;62.14
65291;SHT30;51893;59.754;10.110;2023-09-07T12:22:13;24.51;61.81
65291;SHT30;51893;59.754;10.110;2023-09-07T12:24:41;24.54;61.86
65291;SHT30;51893;59.754;10.110;2023-09-07T12:27:09;24.58;61.84
65291;SHT30;51893;59.754;10.110;2023-09-07T12:29:37;24.59;61.53
65291;SHT30;51893;59.754;10.110;2023-09-07T12:32:05;24.63;61.80
65291;SHT30;51893;59.754;10.110;2023-09-07T12:34:34;24.70;61.43
65291;SHT30;51893;59.754;10.110;2023-09-07T12:37:02;24.73;61.07
65291;SHT30;51893;59.754;10.110;2023-09-07T12:39:33;24.64;61.10
65291;SHT30;51893;59.754;10.110;2023-09-07T12:42:01;24.70;61.14
65291;SHT30;51893;59.754;10.110;2023-09-07T12:44:29;24.73;60.99
65291;SHT30;51893;59.754;10.110;2023-09-07T12:46:57;24.76;60.85
65291;SHT30;51893;59.754;10.110;2023-09-07T12:49:25;24.83;60.82
65291;SHT30;51893;59.754;10.110;2023-09-07T12:51:53;24.76;60.72
65291;SHT30;51893;59.754;10.110;2023-09-07T12:54:21;24.78;60.69
65291;SHT30;51893;59.754;10.110;2023-09-07T12:56:49;24.83;60.65
65291;SHT30;51893;59.754;10.110;2023-09-07T12:59:17;24.80;60.53
65291;SHT30;51893;59.754;10.110;2023-09-07T13:01:45;24.77;60.64
65291;SHT30;51893;59.754;10.110;2023-09-07T13:04:14;24.79;60.72
65291;SHT30;51893;59.754;10.110;2023-09-07T13:06:42;24.85;60.54
65291;SHT30;51893;59.754;10.110;2023-09-07T13:09:10;24.88;60.30
65291;SHT30;51893;59.754;10.110;2023-09-07T13:11:39;24.85;60.42
65291;SHT30;51893;59.754;10.110;2023-09-07T13:14:08;24.80;60.43
65291;SHT30;51893;59.754;10.110;2023-09-07T13:16:39;24.78;60.52
65291;SHT30;51893;59.754;10.110;2023-09-07T13:19:07;24.85;60.91
65291;SHT30;51893;59.754;10.110;2023-09-07T13:21:35;24.88;60.53
65291;SHT30;51893;59.754;10.110;2023-09-07T13:24:03;24.86;60.50
65291;SHT30;51893;59.754;10.110;2023-09-07T13:26:31;24.81;60.20
65291;SHT30;51893;59.754;10.110;2023-09-07T13:29:00;24.72;60.39
65291;SHT30;51893;59.754;10.110;2023-09-07T13:31:28;24.70;60.56
65291;SHT30;51893;59.754;10.110;2023-09-07T13:33:56;24.73;60.64
65291;SHT30;51893;59.754;10.110;2023-09-07T13:36:24;24.73;60.42
65291;SHT30;51893;59.754;10.110;2023-09-07T13:38:52;24.73;60.45
65291;SHT30;51893;59.754;10.110;2023-09-07T13:41:24;24.72;60.34
65291;SHT30;51893;59.754;10.110;2023-09-07T13:43:52;24.72;60.62
65291;SHT30;51893;59.754;10.110;2023-09-07T13:46:21;24.71;60.57
65291;SHT30;51893;59.754;10.110;2023-09-07T13:48:51;24.72;60.71
65291;SHT30;51893;59.754;10.110;2023-09-07T13:51:19;24.72;60.57
65291;SHT30;51893;59.754;10.110;2023-09-07T13:53:47;24.82;60.71
65291;SHT30;51893;59.754;10.110;2023-09-07T13:56:15;24.89;60.44
65291;SHT30;51893;59.754;10.110;2023-09-07T13:58:43;24.84;59.74
65291;SHT30;51893;59.754;10.110;2023-09-07T14:01:11;24.79;60.03
65291;SHT30;51893;59.754;10.110;2023-09-07T14:03:39;24.77;59.85
65291;SHT30;51893;59.754;10.110;2023-09-07T14:06:08;24.75;60.21
65291;SHT30;51893;59.754;10.110;2023-09-07T14:08:36;24.77;60.54
65291;SHT30;51893;59.754;10.110;2023-09-07T14:11:04;24.72;60.52
65291;SHT30;51893;59.754;10.110;2023-09-07T14:13:32;24.65;60.67
65291;SHT30;51893;59.754;10.110;2023-09-07T14:16:03;24.61;60.84
65291;SHT30;51893;59.754;10.110;2023-09-07T14:18:31;24.52;60.66
65291;SHT30;51893;59.754;10.110;2023-09-07T14:21:00;24.49;60.68
65291;SHT30;51893;59.754;10.110;2023-09-07T14:23:29;24.42;60.92
65291;SHT30;51893;59.754;10.110;2023-09-07T14:25:58;24.38;60.97
65291;SHT30;51893;59.754;10.110;2023-09-07T14:28:29;24.29;60.75
65291;SHT30;51893;59.754;10.110;2023-09-07T14:30:57;24.24;61.04
65291;SHT30;51893;59.754;10.110;2023-09-07T14:33:27;24.24;60.82
65291;SHT30;51893;59.754;10.110;2023-09-07T14:35:56;24.24;60.95
65291;SHT30;51893;59.754;10.110;2023-09-07T14:38:24;24.19;61.16
65291;SHT30;51893;59.754;10.110;2023-09-07T14:40:54;24.15;61.41
65291;SHT30;51893;59.754;10.110;2023-09-07T14:43:23;24.13;61.81
65291;SHT30;51893;59.754;10.110;2023-09-07T14:45:51;24.11;61.76
65291;SHT30;51893;59.754;10.110;2023-09-07T14:48:19;24.08;62.18
65291;SHT30;51893;59.754;10.110;2023-09-07T14:50:47;24.04;62.00
65291;SHT30;51893;59.754;10.110;2023-09-07T14:53:15;23.92;62.09
65291;SHT30;51893;59.754;10.110;2023-09-07T14:55:43;23.84;62.04
65291;SHT30;51893;59.754;10.110;2023-09-07T14:58:12;23.80;61.94
65291;SHT30;51893;59.754;10.110;2023-09-07T15:00:40;23.73;62.18
65291;SHT30;51893;59.754;10.110;2023-09-07T15:03:11;23.68;62.40
65291;SHT30;51893;59.754;10.110;2023-09-07T15:05:39;23.63;62.63
65291;SHT30;51893;59.754;10.110;2023-09-07T15:08:08;23.55;62.70
65291;SHT30;51893;59.754;10.110;2023-09-07T15:10:36;23.47;62.80
65291;SHT30;51893;59.754;10.110;2023-09-07T15:13:04;23.42;62.98
65291;SHT30;51893;59.754;10.110;2023-09-07T15:15:35;23.39;63.02
65291;SHT30;51893;59.754;10.110;2023-09-07T15:18:08;23.29;63.24
65291;SHT30;51893;59.754;10.110;2023-09-07T15:20:36;23.18;63.62
65291;SHT30;51893;59.754;10.110;2023-09-07T15:23:05;23.11;64.12
65291;SHT30;51893;59.754;10.110;2023-09-07T15:25:33;22.98;64.42
65291;SHT30;51893;59.754;10.110;2023-09-07T15:28:01;22.88;64.52
65291;SHT30;51893;59.754;10.110;2023-09-07T15:30:29;22.76;64.79